CYQH

Watson Lake Airport

Watson Lake, , Canada
TAF AMD CYQH 170644Z 1706/1718 VRB03KT 1/2SM FZFG BKN003 TEMPO 1706/1718 P6SM NSW SCT003 BKN180 RMK NXT FCST BY 171200Z
Issued Valid From Valid To
Jan-17 @ 06:44 UTC
(4 hours ago)
Jan-17 @ 06:00 UTC
(5 hours ago)
Jan-17 @ 18:00 UTC
(in 7 hours)
Temporary Jan-17 @ 06:00 -Jan-17 @ 18:00
Visibility Clouds Conditions
Greater than 6 miles
  • Scattered at 300' AGL
  • Broken at 18,000' AGL
Jan-17 @ 06:00 -Jan-17 @ 18:00
Wind Visibility Clouds Conditions
Variable at 3 knots 1/2 miles
  • Broken at 300' AGL
  • Freezing
  • Fog
TAF AMD CYQH 170644Z 1706/1718 VRB03KT 1/2SM FZFG BKN003 TEMPO 1706/1718 P6SM NSW SCT003 BKN180 RMK NXT FCST BY 171200Z
Issued Jan-17 @ 06:44 UTC
(4 hours ago)
Valid From Jan-17 @ 06:00 UTC
(5 hours ago)
Valid To Jan-17 @ 18:00 UTC
(in 7 hours)
Temporary Jan-17 @ 06:00 - Jan-17 @ 18:00
Clouds
  • Scattered at 300' AGL
  • Broken at 18,000' AGL
Conditions
Jan-17 @ 06:00 - Jan-17 @ 18:00
Wind Visibility
Variable at 3 knots 1/2 miles
Clouds
  • Broken at 300' AGL
Conditions
  • Freezing
  • Fog